sensor_id;sensor_type;location;lat;lon;timestamp;temperature;humidity
34646;DHT22;20857;47.808;12.482;2022-12-20T00:01:47;2.60;99.90
34646;DHT22;20857;47.808;12.482;2022-12-20T00:04:13;2.60;99.90
34646;DHT22;20857;47.808;12.482;2022-12-20T00:06:38;2.50;99.90
34646;DHT22;20857;47.808;12.482;2022-12-20T00:09:05;2.50;99.90
34646;DHT22;20857;47.808;12.482;2022-12-20T00:11:30;2.40;99.90
34646;DHT22;20857;47.808;12.482;2022-12-20T00:13:56;2.50;99.90
34646;DHT22;20857;47.808;12.482;2022-12-20T00:16:23;2.40;99.90
34646;DHT22;20857;47.808;12.482;2022-12-20T00:18:53;1.90;99.90
34646;DHT22;20857;47.808;12.482;2022-12-20T00:21:19;1.60;99.90
34646;DHT22;20857;47.808;12.482;2022-12-20T00:23:44;1.50;99.90
34646;DHT22;20857;47.808;12.482;2022-12-20T00:26:11;1.40;99.90
34646;DHT22;20857;47.808;12.482;2022-12-20T00:28:37;1.30;99.90
34646;DHT22;20857;47.808;12.482;2022-12-20T00:31:03;1.20;99.90
34646;DHT22;20857;47.808;12.482;2022-12-20T00:33:29;1.10;99.90
34646;DHT22;20857;47.808;12.482;2022-12-20T00:35:56;1.10;99.90
34646;DHT22;20857;47.808;12.482;2022-12-20T00:38:22;1.10;99.90
34646;DHT22;20857;47.808;12.482;2022-12-20T00:40:58;1.10;99.90
34646;DHT22;20857;47.808;12.482;2022-12-20T00:43:23;1.10;99.90
34646;DHT22;20857;47.808;12.482;2022-12-20T00:45:48;1.10;99.90
34646;DHT22;20857;47.808;12.482;2022-12-20T00:48:14;1.10;99.90
34646;DHT22;20857;47.808;12.482;2022-12-20T00:50:39;0.80;99.90
34646;DHT22;20857;47.808;12.482;2022-12-20T00:55:34;0.60;99.90
34646;DHT22;20857;47.808;12.482;2022-12-20T00:57:59;0.60;99.90
34646;DHT22;20857;47.808;12.482;2022-12-20T01:00:25;0.60;99.90
34646;DHT22;20857;47.808;12.482;2022-12-20T01:02:50;0.50;99.90
34646;DHT22;20857;47.808;12.482;2022-12-20T01:05:16;0.50;99.90
34646;DHT22;20857;47.808;12.482;2022-12-20T01:07:41;0.40;99.90
34646;DHT22;20857;47.808;12.482;2022-12-20T01:10:07;0.40;99.90
34646;DHT22;20857;47.808;12.482;2022-12-20T01:12:35;0.40;99.90
34646;DHT22;20857;47.808;12.482;2022-12-20T01:15:01;0.40;99.90
34646;DHT22;20857;47.808;12.482;2022-12-20T01:17:27;0.30;99.90
34646;DHT22;20857;47.808;12.482;2022-12-20T01:19:52;0.30;99.90
34646;DHT22;20857;47.808;12.482;2022-12-20T01:22:18;0.30;99.90
34646;DHT22;20857;47.808;12.482;2022-12-20T01:24:43;0.20;99.90
34646;DHT22;20857;47.808;12.482;2022-12-20T01:27:08;0.10;99.90
34646;DHT22;20857;47.808;12.482;2022-12-20T01:29:34;0.00;99.90
34646;DHT22;20857;47.808;12.482;2022-12-20T01:31:59;0.10;99.90
34646;DHT22;20857;47.808;12.482;2022-12-20T01:34:25;0.10;99.90
34646;DHT22;20857;47.808;12.482;2022-12-20T01:36:50;0.10;99.90
34646;DHT22;20857;47.808;12.482;2022-12-20T01:39:16;0.00;99.90
34646;DHT22;20857;47.808;12.482;2022-12-20T01:41:42;0.00;99.90
34646;DHT22;20857;47.808;12.482;2022-12-20T01:46:43;0.00;99.90
34646;DHT22;20857;47.808;12.482;2022-12-20T01:51:44;-0.10;99.90
34646;DHT22;20857;47.808;12.482;2022-12-20T01:54:12;-0.20;99.90
34646;DHT22;20857;47.808;12.482;2022-12-20T01:56:39;-0.30;99.90
34646;DHT22;20857;47.808;12.482;2022-12-20T01:59:06;-0.20;99.90
34646;DHT22;20857;47.808;12.482;2022-12-20T02:01:32;-0.20;99.90
34646;DHT22;20857;47.808;12.482;2022-12-20T02:03:58;0.00;99.90
34646;DHT22;20857;47.808;12.482;2022-12-20T02:06:24;0.10;99.90
34646;DHT22;20857;47.808;12.482;2022-12-20T02:08:50;0.10;99.90
34646;DHT22;20857;47.808;12.482;2022-12-20T02:16:44;0.20;99.90
34646;DHT22;20857;47.808;12.482;2022-12-20T02:22:14;0.10;99.90
34646;DHT22;20857;47.808;12.482;2022-12-20T02:29:25;0.00;99.90
34646;DHT22;20857;47.808;12.482;2022-12-20T02:34:24;0.10;99.90
34646;DHT22;20857;47.808;12.482;2022-12-20T02:36:50;0.10;99.90
34646;DHT22;20857;47.808;12.482;2022-12-20T02:39:16;0.20;99.90
34646;DHT22;20857;47.808;12.482;2022-12-20T02:41:43;0.20;99.90
34646;DHT22;20857;47.808;12.482;2022-12-20T02:44:10;0.30;99.90
34646;DHT22;20857;47.808;12.482;2022-12-20T02:46:55;0.30;99.90
34646;DHT22;20857;47.808;12.482;2022-12-20T02:49:22;0.30;99.90
34646;DHT22;20857;47.808;12.482;2022-12-20T02:51:51;0.40;99.90
34646;DHT22;20857;47.808;12.482;2022-12-20T02:54:17;0.40;99.90
34646;DHT22;20857;47.808;12.482;2022-12-20T02:56:49;0.40;99.90
34646;DHT22;20857;47.808;12.482;2022-12-20T02:59:20;0.50;99.90
34646;DHT22;20857;47.808;12.482;2022-12-20T03:01:48;0.50;99.90
34646;DHT22;20857;47.808;12.482;2022-12-20T03:04:14;0.50;99.90
34646;DHT22;20857;47.808;12.482;2022-12-20T03:06:54;0.60;99.90
34646;DHT22;20857;47.808;12.482;2022-12-20T03:09:19;0.50;99.90
34646;DHT22;20857;47.808;12.482;2022-12-20T03:11:45;0.40;99.90
34646;DHT22;20857;47.808;12.482;2022-12-20T03:14:10;0.30;99.90
34646;DHT22;20857;47.808;12.482;2022-12-20T03:16:36;0.20;99.90
34646;DHT22;20857;47.808;12.482;2022-12-20T03:19:01;0.20;99.90
34646;DHT22;20857;47.808;12.482;2022-12-20T03:21:27;0.10;99.90
34646;DHT22;20857;47.808;12.482;2022-12-20T03:23:52;0.10;99.90
34646;DHT22;20857;47.808;12.482;2022-12-20T03:26:18;0.10;99.90
34646;DHT22;20857;47.808;12.482;2022-12-20T03:28:43;0.20;99.90
34646;DHT22;20857;47.808;12.482;2022-12-20T03:31:09;0.20;99.90
34646;DHT22;20857;47.808;12.482;2022-12-20T03:33:34;0.20;99.90
34646;DHT22;20857;47.808;12.482;2022-12-20T03:35:59;0.20;99.90
34646;DHT22;20857;47.808;12.482;2022-12-20T03:38:25;0.30;99.90
34646;DHT22;20857;47.808;12.482;2022-12-20T03:40:50;0.30;99.90
34646;DHT22;20857;47.808;12.482;2022-12-20T03:43:16;0.30;99.90
34646;DHT22;20857;47.808;12.482;2022-12-20T03:45:41;0.30;99.90
34646;DHT22;20857;47.808;12.482;2022-12-20T03:48:07;0.20;99.90
34646;DHT22;20857;47.808;12.482;2022-12-20T03:50:33;0.20;99.90
34646;DHT22;20857;47.808;12.482;2022-12-20T03:53:00;0.20;99.90
34646;DHT22;20857;47.808;12.482;2022-12-20T03:55:26;0.20;99.90
34646;DHT22;20857;47.808;12.482;2022-12-20T03:57:52;0.30;99.90
34646;DHT22;20857;47.808;12.482;2022-12-20T04:00:17;0.30;99.90
34646;DHT22;20857;47.808;12.482;2022-12-20T04:02:43;0.30;99.90
34646;DHT22;20857;47.808;12.482;2022-12-20T04:05:08;0.20;99.90
34646;DHT22;20857;47.808;12.482;2022-12-20T04:07:34;0.10;99.90
34646;DHT22;20857;47.808;12.482;2022-12-20T04:09:59;0.10;99.90
34646;DHT22;20857;47.808;12.482;2022-12-20T04:12:25;0.40;99.90
34646;DHT22;20857;47.808;12.482;2022-12-20T04:14:50;0.20;99.90
34646;DHT22;20857;47.808;12.482;2022-12-20T04:17:15;0.20;99.90
34646;DHT22;20857;47.808;12.482;2022-12-20T04:19:41;0.20;99.90
34646;DHT22;20857;47.808;12.482;2022-12-20T04:22:06;0.20;99.90
34646;DHT22;20857;47.808;12.482;2022-12-20T04:24:32;0.20;99.90
34646;DHT22;20857;47.808;12.482;2022-12-20T04:26:57;0.20;99.90
34646;DHT22;20857;47.808;12.482;2022-12-20T04:29:23;0.10;99.90
34646;DHT22;20857;47.808;12.482;2022-12-20T04:31:48;0.10;99.90
34646;DHT22;20857;47.808;12.482;2022-12-20T04:34:14;0.10;99.90
34646;DHT22;20857;47.808;12.482;2022-12-20T04:36:39;0.10;99.90
34646;DHT22;20857;47.808;12.482;2022-12-20T04:39:05;0.20;99.90
34646;DHT22;20857;47.808;12.482;2022-12-20T04:41:30;0.20;99.90
34646;DHT22;20857;47.808;12.482;2022-12-20T04:43:56;0.00;99.90
34646;DHT22;20857;47.808;12.482;2022-12-20T04:46:23;0.20;99.90
34646;DHT22;20857;47.808;12.482;2022-12-20T04:48:49;0.20;99.90
34646;DHT22;20857;47.808;12.482;2022-12-20T04:51:14;0.00;99.90
34646;DHT22;20857;47.808;12.482;2022-12-20T04:53:40;0.20;99.90
34646;DHT22;20857;47.808;12.482;2022-12-20T04:56:20;0.30;99.90
34646;DHT22;20857;47.808;12.482;2022-12-20T04:58:46;0.30;99.90
34646;DHT22;20857;47.808;12.482;2022-12-20T05:01:12;0.30;99.90
34646;DHT22;20857;47.808;12.482;2022-12-20T05:03:37;0.40;99.90
34646;DHT22;20857;47.808;12.482;2022-12-20T05:06:03;0.30;99.90
34646;DHT22;20857;47.808;12.482;2022-12-20T05:08:29;0.20;99.90
34646;DHT22;20857;47.808;12.482;2022-12-20T05:10:54;0.10;99.90
34646;DHT22;20857;47.808;12.482;2022-12-20T05:13:20;0.20;99.90
34646;DHT22;20857;47.808;12.482;2022-12-20T05:15:49;0.00;99.90
34646;DHT22;20857;47.808;12.482;2022-12-20T05:18:15;0.30;99.90
34646;DHT22;20857;47.808;12.482;2022-12-20T05:20:40;0.30;99.90
34646;DHT22;20857;47.808;12.482;2022-12-20T05:23:05;0.20;99.90
34646;DHT22;20857;47.808;12.482;2022-12-20T05:25:50;0.30;99.90
34646;DHT22;20857;47.808;12.482;2022-12-20T05:28:34;1.80;99.90
34646;DHT22;20857;47.808;12.482;2022-12-20T05:31:00;0.60;99.90
34646;DHT22;20857;47.808;12.482;2022-12-20T05:33:26;0.80;99.90
34646;DHT22;20857;47.808;12.482;2022-12-20T05:35:51;0.90;99.90
34646;DHT22;20857;47.808;12.482;2022-12-20T05:38:17;0.90;99.90
34646;DHT22;20857;47.808;12.482;2022-12-20T05:40:42;0.90;99.90
34646;DHT22;20857;47.808;12.482;2022-12-20T05:43:09;0.60;99.90
34646;DHT22;20857;47.808;12.482;2022-12-20T05:45:34;0.70;99.90
34646;DHT22;20857;47.808;12.482;2022-12-20T05:48:00;0.50;99.90
34646;DHT22;20857;47.808;12.482;2022-12-20T05:50:25;0.30;99.90
34646;DHT22;20857;47.808;12.482;2022-12-20T05:52:51;0.20;99.90
34646;DHT22;20857;47.808;12.482;2022-12-20T05:55:16;0.10;99.90
34646;DHT22;20857;47.808;12.482;2022-12-20T05:57:42;0.20;99.90
34646;DHT22;20857;47.808;12.482;2022-12-20T06:00:08;0.10;99.90
34646;DHT22;20857;47.808;12.482;2022-12-20T06:02:33;0.20;99.90
34646;DHT22;20857;47.808;12.482;2022-12-20T06:04:59;0.40;99.90
34646;DHT22;20857;47.808;12.482;2022-12-20T06:07:24;0.30;99.90
34646;DHT22;20857;47.808;12.482;2022-12-20T06:09:51;0.40;99.90
34646;DHT22;20857;47.808;12.482;2022-12-20T06:12:16;0.40;99.90
34646;DHT22;20857;47.808;12.482;2022-12-20T06:14:42;0.40;99.90
34646;DHT22;20857;47.808;12.482;2022-12-20T06:17:07;0.40;99.90
34646;DHT22;20857;47.808;12.482;2022-12-20T06:19:33;0.50;99.90
34646;DHT22;20857;47.808;12.482;2022-12-20T06:21:58;0.60;99.90
34646;DHT22;20857;47.808;12.482;2022-12-20T06:24:25;0.60;99.90
34646;DHT22;20857;47.808;12.482;2022-12-20T06:26:51;0.90;99.90
34646;DHT22;20857;47.808;12.482;2022-12-20T06:29:17;0.70;99.90
34646;DHT22;20857;47.808;12.482;2022-12-20T06:31:45;0.90;99.90
34646;DHT22;20857;47.808;12.482;2022-12-20T06:34:10;0.90;99.90
34646;DHT22;20857;47.808;12.482;2022-12-20T06:36:36;1.00;99.90
34646;DHT22;20857;47.808;12.482;2022-12-20T06:39:01;0.90;99.90
34646;DHT22;20857;47.808;12.482;2022-12-20T06:41:27;1.20;99.90
34646;DHT22;20857;47.808;12.482;2022-12-20T06:43:53;1.10;99.90
34646;DHT22;20857;47.808;12.482;2022-12-20T06:46:18;1.30;99.90
34646;DHT22;20857;47.808;12.482;2022-12-20T06:48:44;1.20;99.90
34646;DHT22;20857;47.808;12.482;2022-12-20T06:51:10;1.10;99.90
34646;DHT22;20857;47.808;12.482;2022-12-20T06:53:36;0.90;99.90
34646;DHT22;20857;47.808;12.482;2022-12-20T06:56:01;0.70;99.90
34646;DHT22;20857;47.808;12.482;2022-12-20T06:58:27;0.70;99.90
34646;DHT22;20857;47.808;12.482;2022-12-20T07:00:53;0.50;99.90
34646;DHT22;20857;47.808;12.482;2022-12-20T07:03:18;0.60;99.90
34646;DHT22;20857;47.808;12.482;2022-12-20T07:05:44;0.70;99.90
34646;DHT22;20857;47.808;12.482;2022-12-20T07:08:15;0.70;99.90
34646;DHT22;20857;47.808;12.482;2022-12-20T07:10:40;0.60;99.90
34646;DHT22;20857;47.808;12.482;2022-12-20T07:13:06;0.60;99.90
34646;DHT22;20857;47.808;12.482;2022-12-20T07:15:31;0.80;99.90
34646;DHT22;20857;47.808;12.482;2022-12-20T07:17:56;0.90;99.90
34646;DHT22;20857;47.808;12.482;2022-12-20T07:20:22;1.00;99.90
34646;DHT22;20857;47.808;12.482;2022-12-20T07:22:48;1.10;99.90
34646;DHT22;20857;47.808;12.482;2022-12-20T07:25:13;1.40;99.90
34646;DHT22;20857;47.808;12.482;2022-12-20T07:27:39;1.40;99.90
34646;DHT22;20857;47.808;12.482;2022-12-20T07:30:05;1.60;99.90
34646;DHT22;20857;47.808;12.482;2022-12-20T07:32:30;1.90;99.90
34646;DHT22;20857;47.808;12.482;2022-12-20T07:34:56;2.00;99.90
34646;DHT22;20857;47.808;12.482;2022-12-20T07:37:21;1.90;99.90
34646;DHT22;20857;47.808;12.482;2022-12-20T07:39:47;1.90;99.90
34646;DHT22;20857;47.808;12.482;2022-12-20T07:42:12;1.70;99.90
34646;DHT22;20857;47.808;12.482;2022-12-20T07:44:38;1.60;99.90
34646;DHT22;20857;47.808;12.482;2022-12-20T07:47:03;1.60;99.90
34646;DHT22;20857;47.808;12.482;2022-12-20T07:49:29;1.70;99.90
34646;DHT22;20857;47.808;12.482;2022-12-20T07:51:55;1.80;99.90
34646;DHT22;20857;47.808;12.482;2022-12-20T07:54:29;1.90;99.90
34646;DHT22;20857;47.808;12.482;2022-12-20T07:56:57;1.90;99.90
34646;DHT22;20857;47.808;12.482;2022-12-20T07:59:24;2.20;99.90
34646;DHT22;20857;47.808;12.482;2022-12-20T08:01:51;2.40;99.90
34646;DHT22;20857;47.808;12.482;2022-12-20T08:04:18;2.80;99.90
34646;DHT22;20857;47.808;12.482;2022-12-20T08:06:45;2.80;99.90
34646;DHT22;20857;47.808;12.482;2022-12-20T08:09:11;2.40;99.90
34646;DHT22;20857;47.808;12.482;2022-12-20T08:11:37;2.30;99.90
34646;DHT22;20857;47.808;12.482;2022-12-20T08:14:05;2.30;99.90
34646;DHT22;20857;47.808;12.482;2022-12-20T08:16:31;2.30;99.90
34646;DHT22;20857;47.808;12.482;2022-12-20T08:18:56;2.10;99.90
34646;DHT22;20857;47.808;12.482;2022-12-20T08:21:22;2.40;99.90
34646;DHT22;20857;47.808;12.482;2022-12-20T08:23:49;2.40;99.90
34646;DHT22;20857;47.808;12.482;2022-12-20T08:26:14;2.40;99.90
34646;DHT22;20857;47.808;12.482;2022-12-20T08:28:40;2.50;99.90
34646;DHT22;20857;47.808;12.482;2022-12-20T08:31:06;2.40;99.90
34646;DHT22;20857;47.808;12.482;2022-12-20T08:33:33;2.60;99.90
34646;DHT22;20857;47.808;12.482;2022-12-20T08:35:59;2.70;99.90
34646;DHT22;20857;47.808;12.482;2022-12-20T08:38:29;2.80;99.90
34646;DHT22;20857;47.808;12.482;2022-12-20T08:40:55;2.80;99.90
34646;DHT22;20857;47.808;12.482;2022-12-20T08:43:21;3.00;99.90
34646;DHT22;20857;47.808;12.482;2022-12-20T08:45:53;2.80;99.90
34646;DHT22;20857;47.808;12.482;2022-12-20T08:48:19;4.10;99.90
34646;DHT22;20857;47.808;12.482;2022-12-20T08:50:44;3.70;99.90
34646;DHT22;20857;47.808;12.482;2022-12-20T08:53:10;3.70;99.90
34646;DHT22;20857;47.808;12.482;2022-12-20T08:55:35;4.10;99.90
34646;DHT22;20857;47.808;12.482;2022-12-20T08:58:01;4.20;99.90
34646;DHT22;20857;47.808;12.482;2022-12-20T09:00:26;4.10;99.90
34646;DHT22;20857;47.808;12.482;2022-12-20T09:02:52;4.50;99.90
34646;DHT22;20857;47.808;12.482;2022-12-20T09:05:19;4.60;99.90
34646;DHT22;20857;47.808;12.482;2022-12-20T09:07:44;4.80;99.90
34646;DHT22;20857;47.808;12.482;2022-12-20T09:10:10;4.50;99.90
34646;DHT22;20857;47.808;12.482;2022-12-20T09:12:38;4.70;99.90
34646;DHT22;20857;47.808;12.482;2022-12-20T09:15:04;4.50;99.90
34646;DHT22;20857;47.808;12.482;2022-12-20T09:17:29;4.40;99.90
34646;DHT22;20857;47.808;12.482;2022-12-20T09:19:55;4.30;99.90
34646;DHT22;20857;47.808;12.482;2022-12-20T09:22:20;4.20;99.90
34646;DHT22;20857;47.808;12.482;2022-12-20T09:24:46;4.00;99.90
34646;DHT22;20857;47.808;12.482;2022-12-20T09:27:11;4.30;99.90
34646;DHT22;20857;47.808;12.482;2022-12-20T09:29:37;4.30;99.90
34646;DHT22;20857;47.808;12.482;2022-12-20T09:32:02;4.00;99.90
34646;DHT22;20857;47.808;12.482;2022-12-20T09:34:28;4.20;99.90
34646;DHT22;20857;47.808;12.482;2022-12-20T09:36:53;4.10;99.90
34646;DHT22;20857;47.808;12.482;2022-12-20T09:39:19;4.10;99.90
34646;DHT22;20857;47.808;12.482;2022-12-20T09:41:44;4.30;99.90
34646;DHT22;20857;47.808;12.482;2022-12-20T09:46:39;4.30;99.90
34646;DHT22;20857;47.808;12.482;2022-12-20T09:49:05;4.40;99.90
34646;DHT22;20857;47.808;12.482;2022-12-20T09:59:25;4.60;99.90
34646;DHT22;20857;47.808;12.482;2022-12-20T10:01:51;4.60;99.90
34646;DHT22;20857;47.808;12.482;2022-12-20T10:14:45;4.90;99.90
34646;DHT22;20857;47.808;12.482;2022-12-20T10:17:16;4.90;99.90
34646;DHT22;20857;47.808;12.482;2022-12-20T10:22:25;5.30;99.90
34646;DHT22;20857;47.808;12.482;2022-12-20T10:24:56;5.40;99.90
34646;DHT22;20857;47.808;12.482;2022-12-20T10:27:23;5.70;99.90
34646;DHT22;20857;47.808;12.482;2022-12-20T10:29:48;6.10;99.90
34646;DHT22;20857;47.808;12.482;2022-12-20T10:32:16;6.00;99.90
34646;DHT22;20857;47.808;12.482;2022-12-20T10:34:45;6.60;99.90
34646;DHT22;20857;47.808;12.482;2022-12-20T10:37:15;6.70;99.90
34646;DHT22;20857;47.808;12.482;2022-12-20T10:39:41;6.70;99.90
34646;DHT22;20857;47.808;12.482;2022-12-20T10:47:40;7.00;99.90
34646;DHT22;20857;47.808;12.482;2022-12-20T10:50:08;6.90;99.90
34646;DHT22;20857;47.808;12.482;2022-12-20T10:52:37;6.90;99.90
34646;DHT22;20857;47.808;12.482;2022-12-20T10:55:04;6.90;99.90
34646;DHT22;20857;47.808;12.482;2022-12-20T10:57:48;6.70;99.90
34646;DHT22;20857;47.808;12.482;2022-12-20T11:00:25;6.70;99.90
34646;DHT22;20857;47.808;12.482;2022-12-20T11:03:01;6.60;99.90
34646;DHT22;20857;47.808;12.482;2022-12-20T11:05:27;6.50;99.90
34646;DHT22;20857;47.808;12.482;2022-12-20T11:07:57;6.60;99.90
34646;DHT22;20857;47.808;12.482;2022-12-20T11:10:24;6.50;99.90
34646;DHT22;20857;47.808;12.482;2022-12-20T11:12:59;5.60;99.90
34646;DHT22;20857;47.808;12.482;2022-12-20T11:15:26;5.20;99.90
34646;DHT22;20857;47.808;12.482;2022-12-20T11:17:56;5.20;99.90
34646;DHT22;20857;47.808;12.482;2022-12-20T11:30:50;5.50;99.90
34646;DHT22;20857;47.808;12.482;2022-12-20T11:35:56;5.80;99.90
34646;DHT22;20857;47.808;12.482;2022-12-20T11:41:29;5.80;99.90
34646;DHT22;20857;47.808;12.482;2022-12-20T11:44:01;5.60;99.90
34646;DHT22;20857;47.808;12.482;2022-12-20T11:51:47;5.70;99.90
34646;DHT22;20857;47.808;12.482;2022-12-20T11:54:29;5.90;99.90
34646;DHT22;20857;47.808;12.482;2022-12-20T11:56:58;5.90;99.90
34646;DHT22;20857;47.808;12.482;2022-12-20T11:59:46;5.80;99.90
34646;DHT22;20857;47.808;12.482;2022-12-20T12:02:22;5.80;99.90
34646;DHT22;20857;47.808;12.482;2022-12-20T12:04:53;5.90;99.90
34646;DHT22;20857;47.808;12.482;2022-12-20T12:07:20;5.70;99.90
34646;DHT22;20857;47.808;12.482;2022-12-20T12:09:50;5.60;99.90
34646;DHT22;20857;47.808;12.482;2022-12-20T12:12:27;5.50;99.90
34646;DHT22;20857;47.808;12.482;2022-12-20T12:15:02;5.50;99.90
34646;DHT22;20857;47.808;12.482;2022-12-20T12:17:45;5.50;99.90
34646;DHT22;20857;47.808;12.482;2022-12-20T12:20:34;5.40;99.90
34646;DHT22;20857;47.808;12.482;2022-12-20T12:23:17;5.40;99.90
34646;DHT22;20857;47.808;12.482;2022-12-20T12:25:44;5.50;99.90
34646;DHT22;20857;47.808;12.482;2022-12-20T12:28:11;5.50;99.90
34646;DHT22;20857;47.808;12.482;2022-12-20T12:30:38;5.70;99.90
34646;DHT22;20857;47.808;12.482;2022-12-20T12:33:15;5.60;99.90
34646;DHT22;20857;47.808;12.482;2022-12-20T12:35:45;5.90;99.90
34646;DHT22;20857;47.808;12.482;2022-12-20T12:46:09;5.90;99.90
34646;DHT22;20857;47.808;12.482;2022-12-20T12:48:40;5.60;99.90
34646;DHT22;20857;47.808;12.482;2022-12-20T12:51:06;5.60;99.90
34646;DHT22;20857;47.808;12.482;2022-12-20T12:53:41;5.70;99.90
34646;DHT22;20857;47.808;12.482;2022-12-20T13:09:17;5.50;99.90
34646;DHT22;20857;47.808;12.482;2022-12-20T13:11:43;5.50;99.90
34646;DHT22;20857;47.808;12.482;2022-12-20T13:16:48;5.50;99.90
34646;DHT22;20857;47.808;12.482;2022-12-20T13:19:15;6.20;99.90
34646;DHT22;20857;47.808;12.482;2022-12-20T13:21:50;5.50;99.90
34646;DHT22;20857;47.808;12.482;2022-12-20T13:24:34;5.50;99.90
34646;DHT22;20857;47.808;12.482;2022-12-20T13:27:01;5.40;99.90
34646;DHT22;20857;47.808;12.482;2022-12-20T13:29:27;5.10;99.90
34646;DHT22;20857;47.808;12.482;2022-12-20T13:31:57;5.00;99.90
34646;DHT22;20857;47.808;12.482;2022-12-20T13:34:36;4.80;99.90
34646;DHT22;20857;47.808;12.482;2022-12-20T13:37:24;4.80;99.90
34646;DHT22;20857;47.808;12.482;2022-12-20T13:39:50;4.80;99.90
34646;DHT22;20857;47.808;12.482;2022-12-20T13:44:44;4.30;99.90
34646;DHT22;20857;47.808;12.482;2022-12-20T13:49:52;4.40;99.90
34646;DHT22;20857;47.808;12.482;2022-12-20T13:52:30;4.40;99.90
34646;DHT22;20857;47.808;12.482;2022-12-20T13:55:00;4.50;99.90
34646;DHT22;20857;47.808;12.482;2022-12-20T13:57:41;4.50;99.90
34646;DHT22;20857;47.808;12.482;2022-12-20T14:00:14;4.60;99.90
34646;DHT22;20857;47.808;12.482;2022-12-20T14:02:40;4.80;99.90
34646;DHT22;20857;47.808;12.482;2022-12-20T14:07:38;5.00;99.90
34646;DHT22;20857;47.808;12.482;2022-12-20T14:10:15;5.10;99.90
34646;DHT22;20857;47.808;12.482;2022-12-20T14:12:43;5.20;99.90
34646;DHT22;20857;47.808;12.482;2022-12-20T14:15:19;5.40;99.90
34646;DHT22;20857;47.808;12.482;2022-12-20T14:17:45;5.40;99.90
34646;DHT22;20857;47.808;12.482;2022-12-20T14:23:13;5.00;99.90
34646;DHT22;20857;47.808;12.482;2022-12-20T14:25:41;4.90;99.90
34646;DHT22;20857;47.808;12.482;2022-12-20T14:28:49;4.90;99.90
34646;DHT22;20857;47.808;12.482;2022-12-20T14:30:57;4.80;99.90
34646;DHT22;20857;47.808;12.482;2022-12-20T14:33:36;4.80;99.90
34646;DHT22;20857;47.808;12.482;2022-12-20T14:36:20;4.70;99.90
34646;DHT22;20857;47.808;12.482;2022-12-20T14:38:50;4.50;99.90
34646;DHT22;20857;47.808;12.482;2022-12-20T14:43:57;4.20;99.90
34646;DHT22;20857;47.808;12.482;2022-12-20T14:46:23;4.20;99.90
34646;DHT22;20857;47.808;12.482;2022-12-20T14:48:53;4.30;99.90
34646;DHT22;20857;47.808;12.482;2022-12-20T14:51:29;4.30;99.90
34646;DHT22;20857;47.808;12.482;2022-12-20T14:53:54;4.30;99.90
34646;DHT22;20857;47.808;12.482;2022-12-20T14:56:20;4.20;99.90
34646;DHT22;20857;47.808;12.482;2022-12-20T14:58:47;4.20;99.90
34646;DHT22;20857;47.808;12.482;2022-12-20T15:01:25;4.10;99.90
34646;DHT22;20857;47.808;12.482;2022-12-20T15:03:56;4.00;99.90
34646;DHT22;20857;47.808;12.482;2022-12-20T15:08:56;3.80;99.90
34646;DHT22;20857;47.808;12.482;2022-12-20T15:11:22;3.70;99.90
34646;DHT22;20857;47.808;12.482;2022-12-20T15:13:50;3.60;99.90
34646;DHT22;20857;47.808;12.482;2022-12-20T15:16:23;3.50;99.90
34646;DHT22;20857;47.808;12.482;2022-12-20T15:18:52;3.40;99.90
34646;DHT22;20857;47.808;12.482;2022-12-20T15:21:26;3.30;99.90
34646;DHT22;20857;47.808;12.482;2022-12-20T15:23:53;3.30;99.90
34646;DHT22;20857;47.808;12.482;2022-12-20T15:26:20;3.20;99.90
34646;DHT22;20857;47.808;12.482;2022-12-20T15:28:45;3.20;99.90
34646;DHT22;20857;47.808;12.482;2022-12-20T15:31:11;3.10;99.90
34646;DHT22;20857;47.808;12.482;2022-12-20T15:33:39;3.10;99.90
34646;DHT22;20857;47.808;12.482;2022-12-20T15:36:05;3.20;99.90
34646;DHT22;20857;47.808;12.482;2022-12-20T15:38:30;3.20;99.90
34646;DHT22;20857;47.808;12.482;2022-12-20T15:40:59;3.20;99.90
34646;DHT22;20857;47.808;12.482;2022-12-20T15:43:27;3.20;99.90
34646;DHT22;20857;47.808;12.482;2022-12-20T15:45:53;3.10;99.90
34646;DHT22;20857;47.808;12.482;2022-12-20T15:48:19;3.10;99.90
34646;DHT22;20857;47.808;12.482;2022-12-20T15:50:50;3.00;99.90
34646;DHT22;20857;47.808;12.482;2022-12-20T15:53:17;3.00;99.90
34646;DHT22;20857;47.808;12.482;2022-12-20T15:55:47;2.90;99.90
34646;DHT22;20857;47.808;12.482;2022-12-20T15:58:13;2.90;99.90
34646;DHT22;20857;47.808;12.482;2022-12-20T16:00:39;3.00;99.90
34646;DHT22;20857;47.808;12.482;2022-12-20T16:03:14;3.00;99.90
34646;DHT22;20857;47.808;12.482;2022-12-20T16:05:40;3.00;99.90
34646;DHT22;20857;47.808;12.482;2022-12-20T16:08:06;2.70;99.90
34646;DHT22;20857;47.808;12.482;2022-12-20T16:10:31;2.90;99.90
34646;DHT22;20857;47.808;12.482;2022-12-20T16:12:57;3.00;99.90
34646;DHT22;20857;47.808;12.482;2022-12-20T16:15:22;3.00;99.90
34646;DHT22;20857;47.808;12.482;2022-12-20T16:17:48;2.90;99.90
34646;DHT22;20857;47.808;12.482;2022-12-20T16:20:13;2.90;99.90
34646;DHT22;20857;47.808;12.482;2022-12-20T16:22:39;2.80;99.90
34646;DHT22;20857;47.808;12.482;2022-12-20T16:25:04;2.80;99.90
34646;DHT22;20857;47.808;12.482;2022-12-20T16:27:30;2.80;99.90
34646;DHT22;20857;47.808;12.482;2022-12-20T16:29:56;2.70;99.90
34646;DHT22;20857;47.808;12.482;2022-12-20T16:32:21;2.70;99.90
34646;DHT22;20857;47.808;12.482;2022-12-20T16:34:50;2.70;99.90
34646;DHT22;20857;47.808;12.482;2022-12-20T16:37:15;2.70;99.90
34646;DHT22;20857;47.808;12.482;2022-12-20T16:39:41;2.60;99.90
34646;DHT22;20857;47.808;12.482;2022-12-20T16:42:13;2.70;99.90
34646;DHT22;20857;47.808;12.482;2022-12-20T16:44:39;2.70;99.90
34646;DHT22;20857;47.808;12.482;2022-12-20T16:47:07;2.60;99.90
34646;DHT22;20857;47.808;12.482;2022-12-20T16:49:32;2.80;99.90
34646;DHT22;20857;47.808;12.482;2022-12-20T16:51:58;2.60;99.90
34646;DHT22;20857;47.808;12.482;2022-12-20T16:54:23;2.60;99.90
34646;DHT22;20857;47.808;12.482;2022-12-20T16:56:49;2.80;99.90
34646;DHT22;20857;47.808;12.482;2022-12-20T16:59:19;2.80;99.90
34646;DHT22;20857;47.808;12.482;2022-12-20T17:01:44;2.80;99.90
34646;DHT22;20857;47.808;12.482;2022-12-20T17:04:14;2.90;99.90
34646;DHT22;20857;47.808;12.482;2022-12-20T17:06:40;2.90;99.90
34646;DHT22;20857;47.808;12.482;2022-12-20T17:09:06;3.00;99.90
34646;DHT22;20857;47.808;12.482;2022-12-20T17:11:32;3.00;99.90
34646;DHT22;20857;47.808;12.482;2022-12-20T17:13:58;3.00;99.90
34646;DHT22;20857;47.808;12.482;2022-12-20T17:16:23;3.00;99.90
34646;DHT22;20857;47.808;12.482;2022-12-20T17:18:50;3.00;99.90
34646;DHT22;20857;47.808;12.482;2022-12-20T17:23:48;3.20;99.90
34646;DHT22;20857;47.808;12.482;2022-12-20T17:26:14;3.20;99.90
34646;DHT22;20857;47.808;12.482;2022-12-20T17:28:40;3.30;99.90